deformed-offering

Nearby METAR Reports

 

KNUQ - Moffett Nas/Mtn, California, USA
Distance from station: N 9mi, 14km
Updated: Mon, 22-Apr-2019 7:56pm PDT
Clear
Clear
 Wind from N
Wind: N 7 mph , 11 km/h
Temperature: 64°F , 18°C
Dew Point: 54°F , 12°C
Humidity: 68%
Barometer: 29.99 inHg , 1015.6 hPa
Clouds: Clear
Visibility: 10 miles , 16 km
2019/04/23 02:56 KNUQ 230256Z 36006KT 10SM CLR 18/12 A2999 RMK AO2 SLP159 T01780122 55004 $
KSJC - San Jose, California, USA
Distance from station: NE 9mi, 14km
Updated: Mon, 22-Apr-2019 7:53pm PDT
Partly Cloudy
Partly Cloudy
 Wind from NW
Wind: NW 8 mph , 13 km/h
Temperature: 66°F , 19°C
Dew Point: 46°F , 8°C
Humidity: 49%
Barometer: 29.98 inHg , 1015.2 hPa
Clouds: Partly Cloudy
Visibility: 10 miles , 16 km
Cloud details: Few Clouds 10000 ft
Partly Cloudy 25000 ft
2019/04/23 02:53 KSJC 230253Z 32007KT 10SM FEW100 SCT250 19/08 A2998 RMK AO2 SLP152 T01940083 55005
 
KRHV - San Jose/Reid, California, USA
Distance from station: ENE 12mi, 19km
Updated: Mon, 22-Apr-2019 7:50pm PDT
Clear
Clear
 Wind from N
Wind: N 7 mph , 11 km/h
Temperature: 72°F , 22°C
Dew Point: 48°F , 9°C
Humidity: 44%
Barometer: 29.99 inHg , 1015.6 hPa
Clouds: Clear
Visibility: 10 miles , 16 km
2019/04/23 02:50 KRHV 230250Z 35006KT 10SM SKC 22/09 A2999
KPAO - Palo Alto, California, USA
Distance from station: NNW 14mi, 23km
Updated: Mon, 22-Apr-2019 7:47pm PDT
Partly Cloudy
Partly Cloudy
 Wind from NW
Wind: NW 12 mph , 19 km/h
Temperature: 63°F , 17°C
Dew Point: 54°F , 12°C
Humidity: 73%
Barometer: 29.99 inHg , 1015.6 hPa
Clouds: Partly Cloudy
Visibility: 10 miles , 16 km
Cloud details: Partly Cloudy 20000 ft
2019/04/23 02:47 KPAO 230247Z 32010KT 10SM SCT200 17/12 A2999
 
KSQL - San Carlos Airpo, California, USA
Distance from station: NW 21mi, 34km
Updated: Mon, 22-Apr-2019 7:55pm PDT
Partly Cloudy
Partly Cloudy
 Wind from WNW
Wind: WNW 6 mph , 9 km/h
Temperature: 66°F , 19°C
Dew Point: 48°F , 9°C
Humidity: 52%
Barometer: 29.99 inHg , 1015.6 hPa
Clouds: Partly Cloudy
Visibility: 10 miles , 16 km
Cloud details: Partly Cloudy 20000 ft
2019/04/23 02:55 KSQL 230255Z 30005KT 10SM SCT200 19/09 A2999
KE16 - San Martin, California, USA
Distance from station: ESE 27mi, 43km
Updated: Mon, 22-Apr-2019 7:55pm PDT
Clear
Clear
 Wind from NNW
Wind: NNW 6 mph , 9 km/h
Temperature: 73°F , 23°C
Dew Point: 37°F , 3°C
Humidity: 27%
Barometer: 30.00 inHg , 1015.9 hPa
Clouds: Clear
Visibility: 10 miles , 16 km
2019/04/23 02:55 KE16 230255Z AUTO 33005KT 10SM CLR 23/03 A3000 RMK AO2
 
KWVI - Watsonville, California, USA
Distance from station: SSE 27mi, 44km
Updated: Mon, 22-Apr-2019 7:53pm PDT
Clear
Clear
 Wind from S
Wind: S 7 mph , 11 km/h
Temperature: 55°F , 13°C
Dew Point: 52°F , 11°C
Humidity: 88%
Barometer: 30.01 inHg , 1016.3 hPa
Clouds: Clear
Visibility: 10 miles , 16 km
2019/04/23 02:53 KWVI 230253Z AUTO 18006KT 10SM CLR 13/11 A3001 RMK AO2 SLP161 T01330106 55006
KHWD - Hayward, California, USA
Distance from station: N 28mi, 44km
Updated: Mon, 22-Apr-2019 7:54pm PDT
Clear
Clear
 Wind from WNW
Wind: WNW 3 mph , 6 km/h
Temperature: 63°F , 17°C
Dew Point: 52°F , 11°C
Humidity: 68%
Barometer: 29.99 inHg , 1015.6 hPa
Clouds: Clear
Visibility: 10 miles , 16 km
2019/04/23 02:54 KHWD 230254Z 30003KT 10SM CLR 17/11 A2999 RMK AO2 SLP165 T01670106 55007
 
KSFO - San Francisco, California, USA
Distance from station: NW 30mi, 49km
Updated: Mon, 22-Apr-2019 7:56pm PDT
Mostly Cloudy
Mostly Cloudy
 Wind from WNW
Wind: WNW 17 mph , 28 km/h
Temperature: 55°F , 13°C
Dew Point: 46°F , 8°C
Humidity: 72%
Barometer: 29.99 inHg , 1015.6 hPa
Clouds: Mostly Cloudy
Visibility: 10 miles , 16 km
Cloud details: Few Clouds 18000 ft
Mostly Cloudy 20000 ft
2019/04/23 02:56 KSFO 230256Z 30015KT 10SM FEW180 BKN200 13/08 A2999 RMK AO2 PK WND 28026/0216 SLP154 T01330078 55010
KHAF - Half Moon Bay, California, USA
Distance from station: WNW 31mi, 50km
Updated: Mon, 22-Apr-2019 7:55pm PDT
Haze, Clear
Haze, Clear
 Wind from NNW
Wind: NNW 6 mph , 9 km/h
Temperature: 54°F , 12°C
Dew Point: 48°F , 9°C
Humidity: 82%
Barometer: 30.03 inHg , 1016.9 hPa
Summary: Haze
Clouds: Clear
Visibility: 3 miles , 5 km
2019/04/23 02:55 KHAF 230255Z AUTO 34005KT 3SM HZ CLR 12/09 A3003 RMK AO2
 
KOAK - Oakland, California, USA
Distance from station: NNW 31mi, 50km
Updated: Mon, 22-Apr-2019 7:53pm PDT
Mostly Cloudy
Mostly Cloudy
 Wind from WNW
Wind: WNW 10 mph , 17 km/h
Temperature: 63°F , 17°C
Dew Point: 50°F , 10°C
Humidity: 64%
Barometer: 30.00 inHg , 1015.9 hPa
Clouds: Mostly Cloudy
Visibility: 10 miles , 16 km
Cloud details: Mostly Cloudy 20000 ft
2019/04/23 02:53 KOAK 230253Z 29009KT 10SM BKN200 17/10 A3000 RMK AO2 SLP158 T01670100 55005
KLVK - Livermore, California, USA
Distance from station: NNE 31mi, 51km
Updated: Mon, 22-Apr-2019 7:53pm PDT
Clear
Clear
 Wind from calm
Wind: Calm
Temperature: 73°F , 23°C
Dew Point: 50°F , 10°C
Humidity: 44%
Barometer: 29.97 inHg , 1014.9 hPa
Clouds: Clear
Visibility: 10 miles , 16 km
2019/04/23 02:53 KLVK 230253Z 00000KT 10SM CLR 23/10 A2997 RMK AO2 SLP147 T02280100 56007
 
KCVH - Hollister Muni, California, USA
Distance from station: SE 42mi, 68km
Updated: Mon, 22-Apr-2019 8:00pm PDT
Clear
Clear
 Wind from SW
Wind: SW 6 mph , 9 km/h
Temperature: 66°F , 19°C
Dew Point: 48°F , 9°C
Humidity: 52%
Barometer: 29.99 inHg , 1015.6 hPa
Clouds: Clear
Visibility: 10 miles , 16 km
2019/04/23 03:00 KCVH 230300Z AUTO 22005KT 10SM CLR 19/09 A2999 RMK A01
KSNS - Salinas, California, USA
Distance from station: SSE 48mi, 77km
Updated: Mon, 22-Apr-2019 7:53pm PDT
Clear
Clear
 Wind from NNW
Wind: NNW 12 mph , 19 km/h
Temperature: 59°F , 15°C
Dew Point: 48°F , 9°C
Humidity: 68%
Barometer: 30.01 inHg , 1016.3 hPa
Clouds: Clear
Visibility: 7 miles , 11 km
2019/04/23 02:53 KSNS 230253Z AUTO 34010KT 7SM CLR 15/09 A3001 RMK AO2 SLP170 T01500094 55005
 
KMRY - Monterey, California, USA
Distance from station: SSE 49mi, 78km
Updated: Mon, 22-Apr-2019 7:54pm PDT
Clear
Clear
 Wind from WNW
Wind: WNW 6 mph , 9 km/h
Temperature: 57°F , 14°C
Dew Point: 46°F , 8°C
Humidity: 67%
Barometer: 30.03 inHg , 1016.9 hPa
Clouds: Clear
Visibility: 8 miles , 13 km
2019/04/23 02:54 KMRY 230254Z 29005KT 8SM CLR 14/08 A3003 RMK AO2 SLP182 T01390083 55005
KCCR - Concord, California, USA
Distance from station: N 50mi, 81km
Updated: Mon, 22-Apr-2019 7:53pm PDT
Clear
Clear
 Wind from NW
Wind: NW 5 mph , 7 km/h
Temperature: 73°F , 23°C
Dew Point: 46°F , 8°C
Humidity: 38%
Barometer: 29.97 inHg , 1014.9 hPa
Clouds: Clear
Visibility: 10 miles , 16 km
2019/04/23 02:53 KCCR 230253Z 32004KT 10SM CLR 23/08 A2997 RMK AO2 SLP135 T02330083 55006
deformed-offering